sensor_id;sensor_type;location;lat;lon;timestamp;pressure;altitude;pressure_sealevel;temperature;humidity
35908;BME280;22003;50.320;8.054;2022-08-03T00:00:16;99682.56;;;17.02;82.18
35908;BME280;22003;50.320;8.054;2022-08-03T00:02:41;99535.34;;;15.67;83.57
35908;BME280;22003;50.320;8.054;2022-08-03T00:05:07;99487.34;;;15.57;82.37
35908;BME280;22003;50.320;8.054;2022-08-03T00:07:33;99502.00;;;15.53;82.60
35908;BME280;22003;50.320;8.054;2022-08-03T00:09:58;99425.97;;;15.05;82.91
35908;BME280;22003;50.320;8.054;2022-08-03T00:12:24;99591.84;;;16.06;83.44
35908;BME280;22003;50.320;8.054;2022-08-03T00:14:49;99534.53;;;16.00;82.28
35908;BME280;22003;50.320;8.054;2022-08-03T00:17:15;99582.75;;;15.91;83.50
35908;BME280;22003;50.320;8.054;2022-08-03T00:19:41;99517.09;;;15.62;83.67
35908;BME280;22003;50.320;8.054;2022-08-03T00:22:07;99625.03;;;16.21;82.99
35908;BME280;22003;50.320;8.054;2022-08-03T00:24:32;99744.47;;;16.73;84.64
35908;BME280;22003;50.320;8.054;2022-08-03T00:27:00;99308.59;;;13.82;83.99
35908;BME280;22003;50.320;8.054;2022-08-03T00:29:25;99686.22;;;16.32;83.23
35908;BME280;22003;50.320;8.054;2022-08-03T00:31:50;99676.59;;;16.48;83.16
35908;BME280;22003;50.320;8.054;2022-08-03T00:34:16;99567.72;;;15.46;85.28
35908;BME280;22003;50.320;8.054;2022-08-03T00:36:41;99652.31;;;16.07;84.76
35908;BME280;22003;50.320;8.054;2022-08-03T00:39:07;99643.38;;;16.16;83.76
35908;BME280;22003;50.320;8.054;2022-08-03T00:41:32;99563.25;;;15.72;84.17
35908;BME280;22003;50.320;8.054;2022-08-03T00:43:57;99700.91;;;16.28;85.17
35908;BME280;22003;50.320;8.054;2022-08-03T00:46:23;99633.44;;;16.08;84.85
35908;BME280;22003;50.320;8.054;2022-08-03T00:48:49;99623.47;;;15.93;84.90
35908;BME280;22003;50.320;8.054;2022-08-03T00:51:15;99732.56;;;16.41;85.12
35908;BME280;22003;50.320;8.054;2022-08-03T00:53:40;99745.72;;;16.60;85.32
35908;BME280;22003;50.320;8.054;2022-08-03T00:56:06;99556.66;;;15.84;83.34
35908;BME280;22003;50.320;8.054;2022-08-03T00:58:31;99642.13;;;16.36;83.73
35908;BME280;22003;50.320;8.054;2022-08-03T01:00:56;99571.94;;;15.74;84.34
35908;BME280;22003;50.320;8.054;2022-08-03T01:03:22;99688.56;;;16.35;84.81
35908;BME280;22003;50.320;8.054;2022-08-03T01:08:45;99701.34;;;15.98;86.98
35908;BME280;22003;50.320;8.054;2022-08-03T01:11:31;99587.19;;;15.38;87.55
35908;BME280;22003;50.320;8.054;2022-08-03T01:14:23;99653.22;;;15.36;88.41
35908;BME280;22003;50.320;8.054;2022-08-03T01:17:05;99441.47;;;14.03;88.91
35908;BME280;22003;50.320;8.054;2022-08-03T01:19:44;99711.88;;;15.81;88.28
35908;BME280;22003;50.320;8.054;2022-08-03T01:22:31;99708.00;;;15.76;89.04
35908;BME280;22003;50.320;8.054;2022-08-03T01:25:33;99672.53;;;15.83;88.05
35908;BME280;22003;50.320;8.054;2022-08-03T01:30:58;99586.41;;;15.28;87.27
35908;BME280;22003;50.320;8.054;2022-08-03T01:33:33;99323.16;;;13.60;87.47
35908;BME280;22003;50.320;8.054;2022-08-03T01:36:16;99518.88;;;14.74;87.31
35908;BME280;22003;50.320;8.054;2022-08-03T01:38:47;99290.16;;;13.15;88.06
35908;BME280;22003;50.320;8.054;2022-08-03T01:41:17;99598.63;;;14.95;89.09
35908;BME280;22003;50.320;8.054;2022-08-03T01:43:44;99714.31;;;15.93;88.05
35908;BME280;22003;50.320;8.054;2022-08-03T01:46:14;99535.97;;;14.26;89.35
35908;BME280;22003;50.320;8.054;2022-08-03T01:48:41;99700.81;;;15.76;89.34
35908;BME280;22003;50.320;8.054;2022-08-03T01:51:09;99538.53;;;14.27;91.19
35908;BME280;22003;50.320;8.054;2022-08-03T01:53:36;99541.97;;;14.10;92.91
35908;BME280;22003;50.320;8.054;2022-08-03T01:56:03;99552.34;;;14.04;92.62
35908;BME280;22003;50.320;8.054;2022-08-03T01:58:31;99433.22;;;13.31;93.69
35908;BME280;22003;50.320;8.054;2022-08-03T02:00:57;99474.22;;;13.48;93.45
35908;BME280;22003;50.320;8.054;2022-08-03T02:03:26;99408.03;;;13.26;92.14
35908;BME280;22003;50.320;8.054;2022-08-03T02:05:53;99707.09;;;15.49;90.99
35908;BME280;22003;50.320;8.054;2022-08-03T02:08:23;99714.59;;;15.18;91.81
35908;BME280;22003;50.320;8.054;2022-08-03T02:10:50;99535.97;;;13.98;92.88
35908;BME280;22003;50.320;8.054;2022-08-03T02:13:39;99332.34;;;12.54;93.01
35908;BME280;22003;50.320;8.054;2022-08-03T02:16:04;99702.34;;;14.98;93.57
35908;BME280;22003;50.320;8.054;2022-08-03T02:18:30;99627.06;;;14.49;93.29
35908;BME280;22003;50.320;8.054;2022-08-03T02:21:02;99532.03;;;14.30;92.40
35908;BME280;22003;50.320;8.054;2022-08-03T02:23:29;99523.41;;;14.18;91.03
35908;BME280;22003;50.320;8.054;2022-08-03T02:25:58;99570.00;;;14.69;90.34
35908;BME280;22003;50.320;8.054;2022-08-03T02:28:31;99409.22;;;13.51;91.10
35908;BME280;22003;50.320;8.054;2022-08-03T02:31:02;99589.09;;;14.65;90.87
35908;BME280;22003;50.320;8.054;2022-08-03T02:33:36;99732.19;;;15.56;90.11
35908;BME280;22003;50.320;8.054;2022-08-03T02:36:04;99463.38;;;13.59;92.17
35908;BME280;22003;50.320;8.054;2022-08-03T02:38:32;99706.16;;;15.41;90.63
35908;BME280;22003;50.320;8.054;2022-08-03T02:41:19;99455.28;;;13.61;90.46
35908;BME280;22003;50.320;8.054;2022-08-03T02:43:48;99450.59;;;13.26;92.42
35908;BME280;22003;50.320;8.054;2022-08-03T02:46:17;99699.03;;;15.14;92.83
35908;BME280;22003;50.320;8.054;2022-08-03T02:48:45;99452.03;;;13.67;90.26
35908;BME280;22003;50.320;8.054;2022-08-03T02:51:12;99339.19;;;12.56;92.98
35908;BME280;22003;50.320;8.054;2022-08-03T02:53:39;99473.44;;;13.09;95.49
35908;BME280;22003;50.320;8.054;2022-08-03T02:56:06;99540.78;;;13.38;96.48
35908;BME280;22003;50.320;8.054;2022-08-03T02:58:33;99613.69;;;13.74;98.29
35908;BME280;22003;50.320;8.054;2022-08-03T03:00:59;99452.47;;;12.77;97.43
35908;BME280;22003;50.320;8.054;2022-08-03T03:03:25;99524.38;;;13.43;96.14
35908;BME280;22003;50.320;8.054;2022-08-03T03:05:52;99333.34;;;12.24;94.43
35908;BME280;22003;50.320;8.054;2022-08-03T03:08:19;99696.16;;;14.97;94.03
35908;BME280;22003;50.320;8.054;2022-08-03T03:10:45;99687.44;;;15.05;93.30
35908;BME280;22003;50.320;8.054;2022-08-03T03:13:13;99494.81;;;13.46;93.20
35908;BME280;22003;50.320;8.054;2022-08-03T03:15:39;99515.59;;;13.80;93.49
35908;BME280;22003;50.320;8.054;2022-08-03T03:18:06;99579.66;;;13.68;93.73
35908;BME280;22003;50.320;8.054;2022-08-03T03:20:35;99561.19;;;13.67;95.61
35908;BME280;22003;50.320;8.054;2022-08-03T03:23:16;99594.06;;;13.76;94.95
35908;BME280;22003;50.320;8.054;2022-08-03T03:25:41;99522.84;;;13.40;93.79
35908;BME280;22003;50.320;8.054;2022-08-03T03:28:09;99403.09;;;12.84;93.82
35908;BME280;22003;50.320;8.054;2022-08-03T03:30:34;99449.47;;;13.18;94.03
35908;BME280;22003;50.320;8.054;2022-08-03T03:33:00;99464.16;;;13.32;93.96
35908;BME280;22003;50.320;8.054;2022-08-03T03:35:27;99556.38;;;13.80;94.27
35908;BME280;22003;50.320;8.054;2022-08-03T03:37:53;99480.84;;;13.15;93.81
35908;BME280;22003;50.320;8.054;2022-08-03T03:40:19;99563.75;;;13.30;94.90
35908;BME280;22003;50.320;8.054;2022-08-03T03:42:44;99474.59;;;12.67;96.78
35908;BME280;22003;50.320;8.054;2022-08-03T03:45:10;99512.47;;;12.60;97.73
35908;BME280;22003;50.320;8.054;2022-08-03T03:47:36;99599.13;;;13.59;96.35
35908;BME280;22003;50.320;8.054;2022-08-03T03:50:03;99716.03;;;14.48;95.61
35908;BME280;22003;50.320;8.054;2022-08-03T03:52:30;99527.03;;;13.14;96.40
35908;BME280;22003;50.320;8.054;2022-08-03T03:54:56;99441.81;;;12.38;96.36
35908;BME280;22003;50.320;8.054;2022-08-03T03:57:21;99490.94;;;12.92;97.48
35908;BME280;22003;50.320;8.054;2022-08-03T03:59:47;99507.72;;;12.63;97.18
35908;BME280;22003;50.320;8.054;2022-08-03T04:02:12;99374.53;;;11.99;96.84
35908;BME280;22003;50.320;8.054;2022-08-03T04:04:38;99700.28;;;14.55;96.20
35908;BME280;22003;50.320;8.054;2022-08-03T04:07:23;99702.13;;;14.54;96.42
35908;BME280;22003;50.320;8.054;2022-08-03T04:10:28;99702.72;;;14.75;95.05
35908;BME280;22003;50.320;8.054;2022-08-03T04:13:14;99698.88;;;14.88;94.34
35908;BME280;22003;50.320;8.054;2022-08-03T04:15:41;99652.28;;;14.55;93.68
35908;BME280;22003;50.320;8.054;2022-08-03T04:18:10;99676.13;;;14.66;96.07
35908;BME280;22003;50.320;8.054;2022-08-03T04:20:39;99700.91;;;15.03;95.71
35908;BME280;22003;50.320;8.054;2022-08-03T04:23:07;99703.03;;;15.27;93.79
35908;BME280;22003;50.320;8.054;2022-08-03T04:25:34;99706.47;;;15.55;92.25
35908;BME280;22003;50.320;8.054;2022-08-03T04:28:02;99709.97;;;15.38;91.72
35908;BME280;22003;50.320;8.054;2022-08-03T04:30:29;99698.53;;;15.81;89.79
35908;BME280;22003;50.320;8.054;2022-08-03T04:32:56;99677.28;;;15.26;89.90
35908;BME280;22003;50.320;8.054;2022-08-03T04:35:23;99712.53;;;16.19;88.47
35908;BME280;22003;50.320;8.054;2022-08-03T04:37:50;99712.59;;;15.83;88.32
35908;BME280;22003;50.320;8.054;2022-08-03T04:40:29;99719.19;;;16.67;86.25
35908;BME280;22003;50.320;8.054;2022-08-03T04:42:55;99712.28;;;16.64;84.40
35908;BME280;22003;50.320;8.054;2022-08-03T04:45:21;99703.34;;;16.74;83.90
35908;BME280;22003;50.320;8.054;2022-08-03T04:47:47;99743.81;;;16.53;84.69
35908;BME280;22003;50.320;8.054;2022-08-03T04:50:14;99707.50;;;16.16;86.00
35908;BME280;22003;50.320;8.054;2022-08-03T04:52:40;99713.44;;;16.28;87.13
35908;BME280;22003;50.320;8.054;2022-08-03T04:55:06;99721.16;;;16.13;88.14
35908;BME280;22003;50.320;8.054;2022-08-03T04:57:31;99704.84;;;15.98;88.79
35908;BME280;22003;50.320;8.054;2022-08-03T04:59:57;99723.06;;;16.47;88.21
35908;BME280;22003;50.320;8.054;2022-08-03T05:02:22;99726.38;;;16.41;89.18
35908;BME280;22003;50.320;8.054;2022-08-03T05:04:48;99678.38;;;15.87;89.38
35908;BME280;22003;50.320;8.054;2022-08-03T05:07:15;99691.59;;;16.15;89.33
35908;BME280;22003;50.320;8.054;2022-08-03T05:09:41;99740.75;;;16.40;90.56
35908;BME280;22003;50.320;8.054;2022-08-03T05:12:06;99739.28;;;16.45;90.19
35908;BME280;22003;50.320;8.054;2022-08-03T05:14:35;99735.91;;;16.69;87.63
35908;BME280;22003;50.320;8.054;2022-08-03T05:17:03;99734.16;;;16.86;88.31
35908;BME280;22003;50.320;8.054;2022-08-03T05:19:29;99734.06;;;16.96;86.06
35908;BME280;22003;50.320;8.054;2022-08-03T05:21:54;99731.00;;;16.82;87.19
35908;BME280;22003;50.320;8.054;2022-08-03T05:24:20;99737.94;;;17.01;87.69
35908;BME280;22003;50.320;8.054;2022-08-03T05:26:45;99739.59;;;17.02;87.52
35908;BME280;22003;50.320;8.054;2022-08-03T05:29:10;99737.16;;;17.25;87.98
35908;BME280;22003;50.320;8.054;2022-08-03T05:31:36;99692.91;;;16.97;86.96
35908;BME280;22003;50.320;8.054;2022-08-03T05:34:01;99735.88;;;17.46;84.63
35908;BME280;22003;50.320;8.054;2022-08-03T05:36:26;99739.78;;;17.67;85.74
35908;BME280;22003;50.320;8.054;2022-08-03T05:38:52;99734.66;;;17.82;85.08
35908;BME280;22003;50.320;8.054;2022-08-03T05:41:17;99740.28;;;17.63;85.32
35908;BME280;22003;50.320;8.054;2022-08-03T05:43:43;99717.50;;;17.51;85.92
35908;BME280;22003;50.320;8.054;2022-08-03T05:46:09;99742.50;;;17.92;85.26
35908;BME280;22003;50.320;8.054;2022-08-03T05:48:34;99745.53;;;17.89;85.11
35908;BME280;22003;50.320;8.054;2022-08-03T05:50:59;99740.50;;;18.10;83.96
35908;BME280;22003;50.320;8.054;2022-08-03T05:53:25;99738.31;;;18.22;83.88
35908;BME280;22003;50.320;8.054;2022-08-03T05:55:50;99736.31;;;18.32;84.05
35908;BME280;22003;50.320;8.054;2022-08-03T05:58:16;99740.31;;;18.28;83.32
35908;BME280;22003;50.320;8.054;2022-08-03T06:00:41;99737.09;;;18.57;81.91
35908;BME280;22003;50.320;8.054;2022-08-03T06:03:06;99735.25;;;18.58;83.02
35908;BME280;22003;50.320;8.054;2022-08-03T06:05:31;99737.63;;;19.08;79.31
35908;BME280;22003;50.320;8.054;2022-08-03T06:08:00;99742.41;;;18.90;82.25
35908;BME280;22003;50.320;8.054;2022-08-03T06:10:26;99733.91;;;19.09;80.57
35908;BME280;22003;50.320;8.054;2022-08-03T06:12:51;99676.88;;;18.68;79.72
35908;BME280;22003;50.320;8.054;2022-08-03T06:15:16;99740.09;;;19.18;80.03
35908;BME280;22003;50.320;8.054;2022-08-03T06:17:47;99681.72;;;18.72;80.57
35908;BME280;22003;50.320;8.054;2022-08-03T06:20:14;99742.34;;;19.37;78.42
35908;BME280;22003;50.320;8.054;2022-08-03T06:22:40;99684.63;;;19.02;79.61
35908;BME280;22003;50.320;8.054;2022-08-03T06:25:05;99737.53;;;19.56;79.78
35908;BME280;22003;50.320;8.054;2022-08-03T06:27:31;99735.19;;;19.52;80.26
35908;BME280;22003;50.320;8.054;2022-08-03T06:29:56;99682.06;;;19.09;77.83
35908;BME280;22003;50.320;8.054;2022-08-03T06:32:21;99746.00;;;19.75;78.44
35908;BME280;22003;50.320;8.054;2022-08-03T06:34:47;99741.19;;;20.09;78.42
35908;BME280;22003;50.320;8.054;2022-08-03T06:37:12;99677.22;;;19.81;76.79
35908;BME280;22003;50.320;8.054;2022-08-03T06:39:38;99708.28;;;20.07;76.06
35908;BME280;22003;50.320;8.054;2022-08-03T06:42:03;99735.47;;;20.26;76.53
35908;BME280;22003;50.320;8.054;2022-08-03T06:44:28;99742.81;;;20.55;75.21
35908;BME280;22003;50.320;8.054;2022-08-03T06:46:54;99685.50;;;20.17;74.48
35908;BME280;22003;50.320;8.054;2022-08-03T06:49:19;99744.69;;;20.55;75.03
35908;BME280;22003;50.320;8.054;2022-08-03T06:51:45;99708.13;;;20.61;73.96
35908;BME280;22003;50.320;8.054;2022-08-03T06:54:10;99731.31;;;20.62;72.64
35908;BME280;22003;50.320;8.054;2022-08-03T06:56:36;99747.19;;;20.56;73.95
35908;BME280;22003;50.320;8.054;2022-08-03T06:59:02;99740.50;;;20.82;72.29
35908;BME280;22003;50.320;8.054;2022-08-03T07:01:27;99736.63;;;20.99;73.10
35908;BME280;22003;50.320;8.054;2022-08-03T07:03:52;99744.00;;;21.42;70.78
35908;BME280;22003;50.320;8.054;2022-08-03T07:06:18;99729.59;;;21.20;71.86
35908;BME280;22003;50.320;8.054;2022-08-03T07:08:44;99742.25;;;21.34;71.86
35908;BME280;22003;50.320;8.054;2022-08-03T07:11:09;99734.53;;;21.67;69.47
35908;BME280;22003;50.320;8.054;2022-08-03T07:13:34;99740.72;;;21.46;70.39
35908;BME280;22003;50.320;8.054;2022-08-03T07:15:59;99743.13;;;21.56;70.80
35908;BME280;22003;50.320;8.054;2022-08-03T07:18:25;99704.81;;;21.60;70.56
35908;BME280;22003;50.320;8.054;2022-08-03T07:20:50;99738.19;;;22.02;68.36
35908;BME280;22003;50.320;8.054;2022-08-03T07:23:16;99726.56;;;22.23;67.35
35908;BME280;22003;50.320;8.054;2022-08-03T07:25:41;99743.00;;;22.28;67.31
35908;BME280;22003;50.320;8.054;2022-08-03T07:28:06;99744.47;;;22.31;66.58
35908;BME280;22003;50.320;8.054;2022-08-03T07:30:32;99749.50;;;22.12;66.53
35908;BME280;22003;50.320;8.054;2022-08-03T07:32:57;99728.16;;;21.96;66.14
35908;BME280;22003;50.320;8.054;2022-08-03T07:35:23;99744.28;;;22.88;64.47
35908;BME280;22003;50.320;8.054;2022-08-03T07:37:48;99648.44;;;22.15;66.34
35908;BME280;22003;50.320;8.054;2022-08-03T07:40:13;99747.94;;;22.53;65.64
35908;BME280;22003;50.320;8.054;2022-08-03T07:42:38;99746.22;;;22.38;66.23
35908;BME280;22003;50.320;8.054;2022-08-03T07:45:04;99755.13;;;22.39;66.12
35908;BME280;22003;50.320;8.054;2022-08-03T07:47:30;99755.50;;;22.64;64.67
35908;BME280;22003;50.320;8.054;2022-08-03T07:49:56;99723.69;;;22.59;64.75
35908;BME280;22003;50.320;8.054;2022-08-03T07:52:21;99748.94;;;22.73;65.42
35908;BME280;22003;50.320;8.054;2022-08-03T07:55:06;99731.63;;;22.96;63.95
35908;BME280;22003;50.320;8.054;2022-08-03T07:57:32;99749.03;;;23.28;64.79
35908;BME280;22003;50.320;8.054;2022-08-03T07:59:58;99741.38;;;23.38;63.83
35908;BME280;22003;50.320;8.054;2022-08-03T08:02:23;99742.97;;;23.80;65.48
35908;BME280;22003;50.320;8.054;2022-08-03T08:04:49;99732.81;;;24.02;63.91
35908;BME280;22003;50.320;8.054;2022-08-03T08:07:14;99710.50;;;23.74;63.72
35908;BME280;22003;50.320;8.054;2022-08-03T08:09:39;99725.94;;;24.06;61.70
35908;BME280;22003;50.320;8.054;2022-08-03T08:12:05;99693.47;;;24.00;62.40
35908;BME280;22003;50.320;8.054;2022-08-03T08:14:32;99693.00;;;23.76;62.27
35908;BME280;22003;50.320;8.054;2022-08-03T08:16:57;99720.50;;;24.19;62.29
35908;BME280;22003;50.320;8.054;2022-08-03T08:19:22;99723.84;;;24.68;60.81
35908;BME280;22003;50.320;8.054;2022-08-03T08:21:48;99694.53;;;24.38;61.03
35908;BME280;22003;50.320;8.054;2022-08-03T08:24:13;99722.59;;;24.64;60.05
35908;BME280;22003;50.320;8.054;2022-08-03T08:26:38;99713.72;;;25.01;58.41
35908;BME280;22003;50.320;8.054;2022-08-03T08:29:03;99724.78;;;25.00;58.98
35908;BME280;22003;50.320;8.054;2022-08-03T08:31:29;99719.97;;;25.09;58.91
35908;BME280;22003;50.320;8.054;2022-08-03T08:33:54;99647.09;;;24.81;58.70
35908;BME280;22003;50.320;8.054;2022-08-03T08:36:19;99669.31;;;25.02;58.16
35908;BME280;22003;50.320;8.054;2022-08-03T08:38:45;99706.84;;;25.50;57.49
35908;BME280;22003;50.320;8.054;2022-08-03T08:41:11;99709.94;;;25.92;56.84
35908;BME280;22003;50.320;8.054;2022-08-03T08:43:37;99709.28;;;25.65;57.23
35908;BME280;22003;50.320;8.054;2022-08-03T08:46:02;99715.75;;;25.96;57.30
35908;BME280;22003;50.320;8.054;2022-08-03T08:48:29;99686.19;;;26.13;55.99
35908;BME280;22003;50.320;8.054;2022-08-03T08:50:56;99705.34;;;26.43;55.23
35908;BME280;22003;50.320;8.054;2022-08-03T08:53:25;99702.31;;;26.32;54.61
35908;BME280;22003;50.320;8.054;2022-08-03T08:55:51;99666.75;;;26.34;53.81
35908;BME280;22003;50.320;8.054;2022-08-03T08:58:20;99701.78;;;26.67;55.79
35908;BME280;22003;50.320;8.054;2022-08-03T09:00:46;99666.72;;;26.59;54.90
35908;BME280;22003;50.320;8.054;2022-08-03T09:03:13;99695.81;;;26.77;52.88
35908;BME280;22003;50.320;8.054;2022-08-03T09:05:41;99692.75;;;27.10;53.17
35908;BME280;22003;50.320;8.054;2022-08-03T09:08:07;99695.28;;;27.05;53.05
35908;BME280;22003;50.320;8.054;2022-08-03T09:10:32;99689.97;;;27.58;53.30
35908;BME280;22003;50.320;8.054;2022-08-03T09:12:58;99697.28;;;27.58;51.51
35908;BME280;22003;50.320;8.054;2022-08-03T09:17:53;99692.06;;;27.45;50.30
35908;BME280;22003;50.320;8.054;2022-08-03T09:20:21;99693.38;;;27.54;51.75
35908;BME280;22003;50.320;8.054;2022-08-03T09:23:03;99680.94;;;27.76;50.56
35908;BME280;22003;50.320;8.054;2022-08-03T09:25:36;99654.81;;;27.57;51.00
35908;BME280;22003;50.320;8.054;2022-08-03T09:30:34;99678.88;;;28.37;50.36
35908;BME280;22003;50.320;8.054;2022-08-03T09:33:05;99671.53;;;28.61;50.28
35908;BME280;22003;50.320;8.054;2022-08-03T09:35:31;99681.94;;;28.64;51.95
35908;BME280;22003;50.320;8.054;2022-08-03T09:38:16;99632.31;;;28.15;49.64
35908;BME280;22003;50.320;8.054;2022-08-03T09:40:43;99660.03;;;28.47;48.28
35908;BME280;22003;50.320;8.054;2022-08-03T09:43:09;99663.97;;;28.51;49.59
35908;BME280;22003;50.320;8.054;2022-08-03T09:45:36;99673.75;;;28.76;49.50
35908;BME280;22003;50.320;8.054;2022-08-03T09:50:51;99652.09;;;29.09;48.07
35908;BME280;22003;50.320;8.054;2022-08-03T09:53:17;99660.16;;;29.44;49.08
35908;BME280;22003;50.320;8.054;2022-08-03T09:55:55;99643.63;;;28.82;47.13
35908;BME280;22003;50.320;8.054;2022-08-03T09:58:21;99659.50;;;29.26;48.07
35908;BME280;22003;50.320;8.054;2022-08-03T10:01:00;99656.66;;;29.61;49.53
35908;BME280;22003;50.320;8.054;2022-08-03T10:03:27;99652.94;;;30.01;47.19
35908;BME280;22003;50.320;8.054;2022-08-03T10:05:53;99649.47;;;30.05;46.13
35908;BME280;22003;50.320;8.054;2022-08-03T10:08:19;99648.13;;;30.08;48.27
35908;BME280;22003;50.320;8.054;2022-08-03T10:10:46;99642.41;;;30.26;48.98
35908;BME280;22003;50.320;8.054;2022-08-03T10:13:17;99637.66;;;30.55;45.88
35908;BME280;22003;50.320;8.054;2022-08-03T10:18:12;99615.69;;;30.28;45.27
35908;BME280;22003;50.320;8.054;2022-08-03T10:20:45;99630.31;;;30.39;47.85
35908;BME280;22003;50.320;8.054;2022-08-03T10:23:15;99631.28;;;30.49;47.16
35908;BME280;22003;50.320;8.054;2022-08-03T10:25:42;99627.28;;;31.01;46.33
35908;BME280;22003;50.320;8.054;2022-08-03T10:28:10;99634.13;;;31.25;45.67
35908;BME280;22003;50.320;8.054;2022-08-03T10:30:40;99624.81;;;30.99;47.98
35908;BME280;22003;50.320;8.054;2022-08-03T10:33:13;99619.00;;;31.18;45.68
35908;BME280;22003;50.320;8.054;2022-08-03T10:35:40;99608.91;;;30.96;44.19
35908;BME280;22003;50.320;8.054;2022-08-03T10:38:13;99609.16;;;30.12;45.13
35908;BME280;22003;50.320;8.054;2022-08-03T10:40:40;99610.22;;;30.28;44.88
35908;BME280;22003;50.320;8.054;2022-08-03T10:43:10;99603.81;;;30.39;45.71
35908;BME280;22003;50.320;8.054;2022-08-03T10:45:40;99586.88;;;30.42;44.92
35908;BME280;22003;50.320;8.054;2022-08-03T10:48:07;99601.25;;;30.33;45.18
35908;BME280;22003;50.320;8.054;2022-08-03T10:50:33;99603.50;;;30.80;44.15
35908;BME280;22003;50.320;8.054;2022-08-03T10:53:01;99605.38;;;30.74;45.18
35908;BME280;22003;50.320;8.054;2022-08-03T10:55:39;99597.47;;;30.99;45.87
35908;BME280;22003;50.320;8.054;2022-08-03T11:01:01;99578.09;;;31.06;44.44
35908;BME280;22003;50.320;8.054;2022-08-03T11:03:27;99567.50;;;30.66;43.47
35908;BME280;22003;50.320;8.054;2022-08-03T11:05:52;99581.34;;;31.03;44.29
35908;BME280;22003;50.320;8.054;2022-08-03T11:08:21;99581.03;;;30.99;43.69
35908;BME280;22003;50.320;8.054;2022-08-03T11:10:49;99578.13;;;31.33;43.79
35908;BME280;22003;50.320;8.054;2022-08-03T11:13:17;99581.28;;;32.21;43.33
35908;BME280;22003;50.320;8.054;2022-08-03T11:15:45;99575.34;;;31.97;42.70
35908;BME280;22003;50.320;8.054;2022-08-03T11:18:14;99574.13;;;31.46;43.42
35908;BME280;22003;50.320;8.054;2022-08-03T11:23:38;99579.84;;;31.76;44.31
35908;BME280;22003;50.320;8.054;2022-08-03T11:26:13;99559.81;;;31.71;43.90
35908;BME280;22003;50.320;8.054;2022-08-03T11:28:40;99568.59;;;32.68;42.13
35908;BME280;22003;50.320;8.054;2022-08-03T11:34:08;99570.59;;;32.30;40.11
35908;BME280;22003;50.320;8.054;2022-08-03T11:39:40;99567.53;;;32.79;42.27
35908;BME280;22003;50.320;8.054;2022-08-03T11:44:46;99564.41;;;33.84;41.53
35908;BME280;22003;50.320;8.054;2022-08-03T11:47:12;99560.56;;;33.95;40.75
35908;BME280;22003;50.320;8.054;2022-08-03T11:49:43;99563.00;;;33.81;38.94
35908;BME280;22003;50.320;8.054;2022-08-03T11:52:10;99567.16;;;33.69;40.10
35908;BME280;22003;50.320;8.054;2022-08-03T11:54:36;99530.34;;;33.34;39.12
35908;BME280;22003;50.320;8.054;2022-08-03T11:57:01;99527.63;;;31.88;41.94
35908;BME280;22003;50.320;8.054;2022-08-03T11:59:34;99557.66;;;32.78;41.64
35908;BME280;22003;50.320;8.054;2022-08-03T12:02:09;99556.38;;;32.96;40.70
35908;BME280;22003;50.320;8.054;2022-08-03T12:04:56;99541.88;;;33.21;41.38
35908;BME280;22003;50.320;8.054;2022-08-03T12:07:23;99548.72;;;33.18;40.08
35908;BME280;22003;50.320;8.054;2022-08-03T12:10:08;99539.13;;;32.32;40.88
35908;BME280;22003;50.320;8.054;2022-08-03T12:12:34;99537.34;;;32.69;41.28
35908;BME280;22003;50.320;8.054;2022-08-03T12:14:59;99539.59;;;32.82;40.08
35908;BME280;22003;50.320;8.054;2022-08-03T12:17:38;99533.50;;;32.70;41.13
35908;BME280;22003;50.320;8.054;2022-08-03T12:20:07;99541.28;;;32.30;40.92
35908;BME280;22003;50.320;8.054;2022-08-03T12:22:41;99537.91;;;32.13;40.81
35908;BME280;22003;50.320;8.054;2022-08-03T12:25:07;99530.72;;;32.54;40.51
35908;BME280;22003;50.320;8.054;2022-08-03T12:27:33;99535.22;;;32.91;40.84
35908;BME280;22003;50.320;8.054;2022-08-03T12:29:59;99529.78;;;33.32;40.17
35908;BME280;22003;50.320;8.054;2022-08-03T12:32:27;99530.53;;;32.76;39.63
35908;BME280;22003;50.320;8.054;2022-08-03T12:34:53;99523.47;;;33.82;39.30
35908;BME280;22003;50.320;8.054;2022-08-03T12:37:20;99522.91;;;33.80;38.70
35908;BME280;22003;50.320;8.054;2022-08-03T12:39:53;99524.88;;;33.49;39.13
35908;BME280;22003;50.320;8.054;2022-08-03T12:42:19;99501.97;;;34.15;37.91
35908;BME280;22003;50.320;8.054;2022-08-03T12:44:45;99495.47;;;33.40;38.02
35908;BME280;22003;50.320;8.054;2022-08-03T12:47:11;99527.00;;;32.96;39.83
35908;BME280;22003;50.320;8.054;2022-08-03T12:49:50;99510.66;;;31.91;40.06
35908;BME280;22003;50.320;8.054;2022-08-03T12:52:17;99520.69;;;31.11;40.85
35908;BME280;22003;50.320;8.054;2022-08-03T12:54:59;99513.94;;;30.92;41.85
35908;BME280;22003;50.320;8.054;2022-08-03T12:57:25;99519.13;;;31.52;41.26
35908;BME280;22003;50.320;8.054;2022-08-03T13:00:15;99526.19;;;33.06;40.06
35908;BME280;22003;50.320;8.054;2022-08-03T13:02:40;99516.28;;;34.02;38.25
35908;BME280;22003;50.320;8.054;2022-08-03T13:05:13;99517.50;;;34.50;38.56
35908;BME280;22003;50.320;8.054;2022-08-03T13:07:40;99504.47;;;33.96;39.77
35908;BME280;22003;50.320;8.054;2022-08-03T13:10:06;99512.16;;;32.82;40.78
35908;BME280;22003;50.320;8.054;2022-08-03T13:12:31;99518.00;;;31.43;40.41
35908;BME280;22003;50.320;8.054;2022-08-03T13:14:58;99486.38;;;30.98;41.30
35908;BME280;22003;50.320;8.054;2022-08-03T13:17:24;99508.81;;;31.00;41.42
35908;BME280;22003;50.320;8.054;2022-08-03T13:19:50;99499.69;;;30.90;41.87
35908;BME280;22003;50.320;8.054;2022-08-03T13:24:46;99509.44;;;31.72;41.60
35908;BME280;22003;50.320;8.054;2022-08-03T13:27:12;99508.75;;;31.92;39.83
35908;BME280;22003;50.320;8.054;2022-08-03T13:29:38;99504.97;;;32.66;39.05
35908;BME280;22003;50.320;8.054;2022-08-03T13:32:04;99500.69;;;33.10;38.76
35908;BME280;22003;50.320;8.054;2022-08-03T13:34:30;99499.88;;;33.46;38.20
35908;BME280;22003;50.320;8.054;2022-08-03T13:36:55;99472.06;;;32.81;38.35